KBJJ/BJJ METAR and TAF weather

Enter ICAO airport designator
Station Type Date Time Source
KBJJ METAR 2020/09/25 19:56 UTC NOAA

KBJJ 251956Z AUTO 09007KT 10SM CLR 26/12 A3001 RMK AO2 SLP159 T02560122


Station Type Date Time Source
KBJJ Decoded METAR 2020/09/25 19:56 UTC NOAA

WOOSTER WAYNE COUNTY AIRPORT, OH, United States (KBJJ) 40-52N 81-53W 343M
Sep 25, 2020 - 03:56 PM EDT / 2020.09.25 1956 UTC
Wind: from the E (090 degrees) at 8 MPH (7 KT):0
Visibility: 10 mile(s):0
Sky conditions: clear
Temperature: 78.1 F (25.6 C)
Dew Point: 54.0 F (12.2 C)
Relative Humidity: 43%
Pressure (altimeter): 30.01 in. Hg (1016 hPa)
ob: KBJJ 251956Z AUTO 09007KT 10SM CLR 26/12 A3001 RMK AO2 SLP159 T02560122
cycle: 20

Station Type Date Time Source
KBJJ TAF UTC NOAA

Error!

Example: see airport list